createdAt,value
2017-12-19T00:00:59.649Z,45.36
2017-12-19T00:03:27.930Z,46.76
2017-12-19T00:05:56.249Z,45.98
2017-12-19T00:08:24.510Z,49.06
2017-12-19T00:10:52.766Z,51.22
2017-12-19T00:13:21.049Z,51.84
2017-12-19T00:15:49.311Z,52.88
2017-12-19T00:18:17.593Z,52.24
2017-12-19T00:20:46.363Z,56.56
2017-12-19T00:23:14.600Z,48.68
2017-12-19T00:25:42.874Z,53.14
2017-12-19T00:28:11.135Z,48.54
2017-12-19T00:30:39.420Z,46.56
2017-12-19T00:33:07.683Z,46.06
2017-12-19T00:35:35.954Z,45.66
2017-12-19T00:38:04.218Z,45.30
2017-12-19T00:40:32.509Z,41.52
2017-12-19T00:43:01.217Z,46.36
2017-12-19T00:45:30.460Z,44.60
2017-12-19T00:47:58.755Z,39.70
2017-12-19T00:50:26.998Z,45.02
2017-12-19T00:52:55.273Z,40.80
2017-12-19T00:55:23.549Z,46.06
2017-12-19T00:57:51.793Z,41.62
2017-12-19T01:00:20.076Z,44.72
2017-12-19T01:02:48.344Z,47.72
2017-12-19T01:05:16.639Z,41.22
2017-12-19T01:07:44.126Z,46.78
2017-12-19T01:10:12.379Z,42.82
2017-12-19T01:12:40.658Z,37.78
2017-12-19T01:15:08.935Z,46.64
2017-12-19T01:17:37.213Z,41.86
2017-12-19T01:20:05.470Z,41.74
2017-12-19T01:22:33.733Z,41.64
2017-12-19T01:25:02.010Z,41.00
2017-12-19T01:27:30.316Z,34.24
2017-12-19T01:29:58.576Z,37.42
2017-12-19T01:32:26.818Z,33.40
2017-12-19T01:34:55.094Z,40.10
2017-12-19T01:37:23.345Z,44.30
2017-12-19T01:39:51.629Z,39.54
2017-12-19T01:42:19.892Z,36.42
2017-12-19T01:44:48.216Z,42.78
2017-12-19T01:47:16.472Z,38.98
2017-12-19T01:49:44.718Z,43.98
2017-12-19T01:52:12.993Z,37.82
2017-12-19T01:54:41.245Z,36.58
2017-12-19T01:57:09.517Z,48.10
2017-12-19T01:59:37.774Z,38.00
2017-12-19T02:02:06.060Z,37.98
2017-12-19T02:04:33.545Z,34.86
2017-12-19T02:07:01.818Z,38.24
2017-12-19T02:09:31.057Z,40.44
2017-12-19T02:11:59.342Z,33.06
2017-12-19T02:14:27.586Z,36.60
2017-12-19T02:16:55.101Z,45.14
2017-12-19T02:19:23.381Z,43.42
2017-12-19T02:21:51.631Z,37.24
2017-12-19T02:24:19.878Z,43.76
2017-12-19T02:26:48.146Z,36.88
2017-12-19T02:29:16.422Z,34.98
2017-12-19T02:31:44.710Z,35.90
2017-12-19T02:34:12.195Z,35.96
2017-12-19T02:36:40.451Z,45.94
2017-12-19T02:39:08.735Z,39.34
2017-12-19T02:41:36.982Z,33.82
2017-12-19T02:44:05.271Z,39.58
2017-12-19T02:46:33.518Z,31.74
2017-12-19T02:49:01.806Z,39.18
2017-12-19T02:51:30.050Z,36.36
2017-12-19T02:53:58.299Z,47.22
2017-12-19T02:56:26.585Z,33.14
2017-12-19T02:58:54.825Z,38.76
2017-12-19T03:01:23.106Z,32.82
2017-12-19T03:03:51.385Z,38.62
2017-12-19T03:06:18.866Z,34.16
2017-12-19T03:08:47.149Z,34.28
2017-12-19T03:11:15.425Z,37.58
2017-12-19T03:13:43.709Z,36.72
2017-12-19T03:16:11.991Z,38.02
2017-12-19T03:18:40.242Z,38.76
2017-12-19T03:21:08.525Z,34.92
2017-12-19T03:23:36.774Z,31.66
2017-12-19T03:26:05.050Z,32.00
2017-12-19T03:28:33.322Z,45.80
2017-12-19T03:31:01.579Z,37.42
2017-12-19T03:33:30.801Z,35.96
2017-12-19T03:35:59.716Z,46.96
2017-12-19T03:38:29.760Z,39.12
2017-12-19T03:40:58.038Z,33.76
2017-12-19T03:43:26.314Z,34.02
2017-12-19T03:45:54.557Z,38.48
2017-12-19T03:48:22.841Z,31.10
2017-12-19T03:50:51.117Z,42.72
2017-12-19T03:53:19.362Z,38.12
2017-12-19T03:55:47.638Z,30.06
2017-12-19T03:58:15.886Z,39.14
2017-12-19T04:00:44.137Z,43.22
2017-12-19T04:03:12.417Z,34.10
2017-12-19T04:05:40.662Z,31.92
2017-12-19T04:08:08.955Z,35.36
2017-12-19T04:10:37.209Z,36.30
2017-12-19T04:13:05.448Z,39.42
2017-12-19T04:15:33.730Z,36.62
2017-12-19T04:18:01.210Z,37.56
2017-12-19T04:20:30.574Z,33.50
2017-12-19T04:22:58.857Z,32.22
2017-12-19T04:25:27.106Z,35.46
2017-12-19T04:27:55.377Z,36.54
2017-12-19T04:30:23.621Z,32.98
2017-12-19T04:32:51.906Z,36.30
2017-12-19T04:35:19.413Z,36.84
2017-12-19T04:37:47.662Z,33.46
2017-12-19T04:40:16.026Z,36.04
2017-12-19T04:42:44.277Z,35.20
2017-12-19T04:45:12.530Z,35.54
2017-12-19T04:47:40.806Z,34.90
2017-12-19T04:50:09.070Z,37.86
2017-12-19T04:52:37.350Z,31.00
2017-12-19T04:55:05.625Z,30.86
2017-12-19T04:57:33.902Z,37.54
2017-12-19T05:00:02.145Z,34.46
2017-12-19T05:02:31.963Z,37.68
2017-12-19T05:05:00.206Z,35.98
2017-12-19T05:07:28.465Z,35.48
2017-12-19T05:09:56.752Z,33.34
2017-12-19T05:12:25.021Z,36.18
2017-12-19T05:14:53.270Z,37.94
2017-12-19T05:17:21.544Z,45.22
2017-12-19T05:19:49.054Z,58.04
2017-12-19T05:22:17.302Z,50.32
2017-12-19T05:24:45.601Z,54.68
2017-12-19T05:27:13.857Z,42.26
2017-12-19T05:29:42.105Z,36.90
2017-12-19T05:32:10.367Z,72.10
2017-12-19T05:34:38.645Z,44.72
2017-12-19T05:37:06.927Z,46.82
2017-12-19T05:39:35.208Z,62.96
2017-12-19T05:42:03.485Z,54.16
2017-12-19T05:44:31.738Z,51.08
2017-12-19T05:47:00.866Z,47.76
2017-12-19T05:49:29.749Z,51.38
2017-12-19T05:51:58.022Z,54.36
2017-12-19T05:54:26.261Z,52.96
2017-12-19T05:56:54.548Z,54.18
2017-12-19T05:59:22.028Z,59.46
2017-12-19T06:01:50.302Z,55.16
2017-12-19T06:04:17.806Z,58.52
2017-12-19T06:06:46.089Z,60.18
2017-12-19T06:09:14.333Z,62.54
2017-12-19T06:11:42.614Z,38.84
2017-12-19T06:14:10.857Z,56.08
2017-12-19T06:16:39.141Z,52.72
2017-12-19T06:19:07.385Z,53.94
2017-12-19T06:21:35.634Z,54.56
2017-12-19T06:24:03.914Z,68.86
2017-12-19T06:26:31.398Z,45.34
2017-12-19T06:29:00.615Z,47.22
2017-12-19T06:31:30.480Z,57.86
2017-12-19T06:33:58.820Z,53.66
2017-12-19T06:36:27.101Z,66.54
2017-12-19T06:38:55.354Z,48.96
2017-12-19T06:41:23.643Z,76.50
2017-12-19T06:43:51.889Z,58.30
2017-12-19T06:46:20.167Z,60.94
2017-12-19T06:48:48.445Z,59.28
2017-12-19T06:51:16.694Z,70.24
2017-12-19T06:53:44.983Z,63.24
2017-12-19T06:56:12.474Z,62.96
2017-12-19T06:58:40.717Z,62.56
2017-12-19T07:01:09.014Z,50.12
2017-12-19T07:03:37.262Z,65.48
2017-12-19T07:06:05.506Z,65.32
2017-12-19T07:08:33.790Z,54.58
2017-12-19T07:11:02.039Z,59.60
2017-12-19T07:13:31.525Z,51.00
2017-12-19T07:16:00.761Z,53.68
2017-12-19T07:18:29.818Z,40.72
2017-12-19T07:20:58.059Z,52.74
2017-12-19T07:23:26.306Z,57.70
2017-12-19T07:25:54.582Z,49.44
2017-12-19T07:28:22.829Z,74.30
2017-12-19T07:30:51.106Z,66.84
2017-12-19T07:33:19.351Z,67.56
2017-12-19T07:35:47.634Z,66.24
2017-12-19T07:38:15.914Z,83.40
2017-12-19T07:40:44.157Z,68.08
2017-12-19T07:43:12.434Z,81.14
2017-12-19T07:45:40.677Z,66.60
2017-12-19T07:48:08.939Z,95.90
2017-12-19T07:50:37.220Z,88.10
2017-12-19T07:53:05.467Z,63.14
2017-12-19T07:55:33.759Z,72.76
2017-12-19T07:58:02.002Z,65.28
2017-12-19T08:00:30.617Z,98.44
2017-12-19T08:02:58.874Z,100.06
2017-12-19T08:05:27.185Z,96.42
2017-12-19T08:07:55.467Z,76.22
2017-12-19T08:10:23.729Z,90.20
2017-12-19T08:12:51.974Z,94.06
2017-12-19T08:15:20.220Z,90.58
2017-12-19T08:17:48.500Z,87.72
2017-12-19T08:20:16.762Z,104.70
2017-12-19T08:22:45.045Z,74.62
2017-12-19T08:25:13.297Z,83.00
2017-12-19T08:27:41.577Z,76.20
2017-12-19T08:30:09.822Z,73.20
2017-12-19T08:32:38.070Z,96.40
2017-12-19T08:35:06.347Z,90.18
2017-12-19T08:37:34.618Z,90.98
2017-12-19T08:40:02.874Z,101.48
2017-12-19T08:42:32.530Z,83.60
2017-12-19T08:45:01.974Z,109.34
2017-12-19T08:47:30.258Z,116.92
2017-12-19T08:49:58.537Z,104.24
2017-12-19T08:52:26.794Z,83.90
2017-12-19T08:54:55.061Z,87.80
2017-12-19T08:57:23.309Z,94.68
2017-12-19T08:59:51.594Z,70.44
2017-12-19T09:02:19.870Z,102.24
2017-12-19T09:04:48.138Z,79.78
2017-12-19T09:07:16.385Z,86.54
2017-12-19T09:09:44.673Z,98.04
2017-12-19T09:12:12.921Z,80.98
2017-12-19T09:14:41.166Z,89.48
2017-12-19T09:17:09.450Z,114.50
2017-12-19T09:19:37.714Z,86.20
2017-12-19T09:22:05.970Z,92.12
2017-12-19T09:24:34.258Z,77.90
2017-12-19T09:27:02.505Z,72.40
2017-12-19T09:29:31.450Z,79.20
2017-12-19T09:32:01.789Z,85.28
2017-12-19T09:34:31.127Z,113.24
2017-12-19T09:36:59.409Z,81.80
2017-12-19T09:39:27.698Z,83.86
2017-12-19T09:41:55.947Z,74.16
2017-12-19T09:44:24.194Z,76.38
2017-12-19T09:46:52.474Z,72.44
2017-12-19T09:49:20.717Z,67.00
2017-12-19T09:51:49.002Z,74.90
2017-12-19T09:54:17.241Z,89.24
2017-12-19T09:56:45.493Z,64.92
2017-12-19T09:59:13.769Z,66.00
2017-12-19T10:01:42.024Z,87.76
2017-12-19T10:04:10.306Z,67.28
2017-12-19T10:06:38.560Z,84.28
2017-12-19T10:09:06.831Z,74.22
2017-12-19T10:11:35.072Z,67.82
2017-12-19T10:14:03.357Z,76.38
2017-12-19T10:16:31.603Z,64.96
2017-12-19T10:19:00.997Z,64.48
2017-12-19T10:21:29.241Z,74.92
2017-12-19T10:23:57.487Z,68.70
2017-12-19T10:26:25.762Z,70.66
2017-12-19T10:28:54.002Z,74.36
2017-12-19T10:31:22.287Z,74.82
2017-12-19T10:33:50.530Z,78.38
2017-12-19T10:36:18.811Z,71.66
2017-12-19T10:38:46.327Z,72.84
2017-12-19T10:41:14.601Z,81.12
2017-12-19T10:43:42.846Z,66.92
2017-12-19T10:46:11.123Z,75.96
2017-12-19T10:48:39.369Z,69.58
2017-12-19T10:51:07.653Z,59.24
2017-12-19T10:53:35.934Z,68.76
2017-12-19T10:56:04.226Z,49.38
2017-12-19T10:58:31.716Z,68.00
2017-12-19T11:01:00.966Z,76.26
2017-12-19T11:03:29.254Z,71.70
2017-12-19T11:05:57.501Z,52.44
2017-12-19T11:08:25.759Z,63.02
2017-12-19T11:10:54.038Z,89.02
2017-12-19T11:13:22.286Z,55.66
2017-12-19T11:15:50.526Z,55.66
2017-12-19T11:18:18.802Z,70.90
2017-12-19T11:20:47.474Z,53.02
2017-12-19T11:23:15.710Z,59.36
2017-12-19T11:25:43.990Z,57.84
2017-12-19T11:28:12.234Z,62.26
2017-12-19T11:30:40.525Z,58.16
2017-12-19T11:33:08.770Z,55.20
2017-12-19T11:35:37.014Z,55.16
2017-12-19T11:38:04.522Z,54.72
2017-12-19T11:40:32.786Z,75.54
2017-12-19T11:43:07.242Z,61.00
2017-12-19T11:45:35.522Z,59.88
2017-12-19T11:48:03.761Z,61.78
2017-12-19T11:50:32.051Z,75.40
2017-12-19T11:53:01.714Z,57.50
2017-12-19T11:55:30.846Z,62.16
2017-12-19T11:57:59.924Z,57.14
2017-12-19T12:00:28.161Z,58.94
2017-12-19T12:02:56.425Z,59.58
2017-12-19T12:05:24.673Z,61.20
2017-12-19T12:07:52.950Z,57.60
2017-12-19T12:10:21.193Z,60.34
2017-12-19T12:12:49.433Z,62.18
2017-12-19T12:15:17.706Z,48.72
2017-12-19T12:17:45.950Z,53.04
2017-12-19T12:20:14.225Z,48.28
2017-12-19T12:22:42.498Z,54.98
2017-12-19T12:25:10.764Z,55.70
2017-12-19T12:27:39.006Z,55.98
2017-12-19T12:30:07.285Z,49.88
2017-12-19T12:32:35.562Z,57.68
2017-12-19T12:35:03.806Z,63.36
2017-12-19T12:37:32.358Z,50.50
2017-12-19T12:40:01.939Z,65.30
2017-12-19T12:42:30.174Z,59.72
2017-12-19T12:44:58.417Z,54.30
2017-12-19T12:47:26.697Z,57.62
2017-12-19T12:49:54.974Z,49.14
2017-12-19T12:52:23.246Z,41.74
2017-12-19T12:54:51.525Z,45.08
2017-12-19T12:57:19.800Z,48.76
2017-12-19T12:59:48.046Z,64.88
2017-12-19T13:02:16.337Z,59.30
2017-12-19T13:04:44.579Z,60.66
2017-12-19T13:07:12.813Z,48.68
2017-12-19T13:09:40.330Z,60.18
2017-12-19T13:12:08.574Z,40.76
2017-12-19T13:14:36.842Z,47.80
2017-12-19T13:17:05.090Z,42.68
2017-12-19T13:19:33.373Z,49.18
2017-12-19T13:22:01.615Z,57.58
2017-12-19T13:24:31.520Z,49.92
2017-12-19T13:27:00.873Z,59.36
2017-12-19T13:29:29.945Z,66.36
2017-12-19T13:31:58.182Z,51.02
2017-12-19T13:34:26.456Z,47.08
2017-12-19T13:36:54.697Z,36.52
2017-12-19T13:39:22.970Z,37.88
2017-12-19T13:41:51.234Z,39.26
2017-12-19T13:44:19.518Z,50.66
2017-12-19T13:46:47.762Z,39.06
2017-12-19T13:49:16.003Z,42.96
2017-12-19T13:51:44.274Z,31.16
2017-12-19T13:54:12.550Z,42.46
2017-12-19T13:56:40.030Z,44.48
2017-12-19T13:59:08.322Z,28.82
2017-12-19T14:01:36.562Z,29.86
2017-12-19T14:04:04.805Z,38.88
2017-12-19T14:06:33.089Z,43.70
2017-12-19T14:09:01.334Z,33.26
2017-12-19T14:11:30.679Z,30.90
2017-12-19T14:14:00.096Z,40.14
2017-12-19T14:16:28.348Z,32.28
2017-12-19T14:18:56.590Z,34.13
2017-12-19T14:21:24.858Z,32.28
2017-12-19T14:23:53.125Z,38.96
2017-12-19T14:26:21.382Z,30.76
2017-12-19T14:28:49.657Z,39.26
2017-12-19T14:31:17.902Z,42.54
2017-12-19T14:33:53.562Z,34.66
2017-12-19T14:36:21.859Z,35.08
2017-12-19T14:38:50.089Z,34.08
2017-12-19T14:41:19.409Z,37.80
2017-12-19T14:43:47.682Z,38.80
2017-12-19T14:46:16.876Z,37.22
2017-12-19T14:48:45.121Z,37.52
2017-12-19T14:51:16.726Z,37.84
2017-12-19T14:53:44.986Z,30.64
2017-12-19T14:56:13.264Z,37.96
2017-12-19T14:58:41.506Z,34.78
2017-12-19T15:01:09.749Z,35.70
2017-12-19T15:03:38.022Z,37.28
2017-12-19T15:06:06.262Z,31.06
2017-12-19T15:08:36.503Z,34.54
2017-12-19T15:11:04.773Z,30.78
2017-12-19T15:13:32.282Z,35.86
2017-12-19T15:16:02.501Z,38.48
2017-12-19T15:18:31.626Z,35.24
2017-12-19T15:21:00.829Z,33.30
2017-12-19T15:23:29.962Z,30.98
2017-12-19T15:25:58.238Z,33.00
2017-12-19T15:28:26.473Z,53.54
2017-12-19T15:30:54.723Z,39.82
2017-12-19T15:33:22.232Z,34.04
2017-12-19T15:35:50.495Z,32.80
2017-12-19T15:38:18.770Z,30.53
2017-12-19T15:40:47.444Z,37.58
2017-12-19T15:43:15.717Z,40.32
2017-12-19T15:45:43.959Z,37.98
2017-12-19T15:48:12.238Z,40.10
2017-12-19T15:50:40.486Z,38.28
2017-12-19T15:53:08.724Z,47.72
2017-12-19T15:55:37.002Z,35.72
2017-12-19T15:58:05.250Z,42.02
2017-12-19T16:00:33.521Z,38.48
2017-12-19T16:03:01.811Z,39.68
2017-12-19T16:05:30.054Z,34.54
2017-12-19T16:07:58.294Z,35.16
2017-12-19T16:10:26.570Z,35.44
2017-12-19T16:12:54.834Z,38.16
2017-12-19T16:15:23.082Z,31.48
2017-12-19T16:17:51.346Z,24.96
2017-12-19T16:20:19.623Z,40.76
2017-12-19T16:22:47.861Z,38.06
2017-12-19T16:25:16.137Z,30.18
2017-12-19T16:27:44.378Z,32.62
2017-12-19T16:30:12.645Z,36.10
2017-12-19T16:32:40.895Z,33.30
2017-12-19T16:35:09.169Z,34.66
2017-12-19T16:37:37.417Z,34.32
2017-12-19T16:40:05.689Z,32.32
2017-12-19T16:42:33.965Z,35.76
2017-12-19T16:45:01.485Z,34.44
2017-12-19T16:47:29.763Z,35.74
2017-12-19T16:49:58.022Z,32.88
2017-12-19T16:52:26.297Z,36.90
2017-12-19T16:54:54.583Z,40.84
2017-12-19T16:57:22.870Z,34.86
2017-12-19T16:59:51.151Z,36.60
2017-12-19T17:02:19.389Z,48.16
2017-12-19T17:04:47.666Z,35.68
2017-12-19T17:07:15.912Z,33.44
2017-12-19T17:09:44.198Z,39.06
2017-12-19T17:12:12.446Z,34.40
2017-12-19T17:14:40.718Z,36.94
2017-12-19T17:17:08.960Z,50.24
2017-12-19T17:19:37.237Z,46.40
2017-12-19T17:22:05.514Z,31.32
2017-12-19T17:24:33.819Z,43.88
2017-12-19T17:27:02.114Z,42.20
2017-12-19T17:29:31.613Z,40.32
2017-12-19T17:32:01.502Z,46.38
2017-12-19T17:34:29.333Z,33.74
2017-12-19T17:36:57.574Z,38.02
2017-12-19T17:39:25.829Z,34.84
2017-12-19T17:41:54.097Z,36.34
2017-12-19T17:44:22.354Z,45.06
2017-12-19T17:46:50.626Z,32.28
2017-12-19T17:49:18.907Z,40.64
2017-12-19T17:51:47.226Z,36.76
2017-12-19T17:54:15.511Z,36.34
2017-12-19T17:56:43.801Z,33.96
2017-12-19T17:59:12.120Z,38.62
2017-12-19T18:01:40.441Z,47.34
2017-12-19T18:04:08.710Z,39.74
2017-12-19T18:06:36.958Z,33.36
2017-12-19T18:09:05.233Z,33.40
2017-12-19T18:11:33.527Z,33.48
2017-12-19T18:14:01.810Z,38.88
2017-12-19T18:16:31.054Z,42.04
2017-12-19T18:18:59.367Z,37.68
2017-12-19T18:21:27.664Z,41.10
2017-12-19T18:23:55.959Z,40.60
2017-12-19T18:26:24.243Z,32.40
2017-12-19T18:28:52.494Z,35.26
2017-12-19T18:31:20.769Z,33.96
2017-12-19T18:33:49.064Z,34.56
2017-12-19T18:36:17.392Z,32.30
2017-12-19T18:38:45.685Z,31.46
2017-12-19T18:41:13.933Z,34.50
2017-12-19T18:43:42.257Z,39.16
2017-12-19T18:46:10.549Z,38.72
2017-12-19T18:48:38.825Z,29.06
2017-12-19T18:51:07.115Z,32.38
2017-12-19T18:53:35.443Z,47.80
2017-12-19T18:56:03.768Z,41.14
2017-12-19T18:58:31.297Z,43.00
2017-12-19T19:01:00.542Z,38.14
2017-12-19T19:03:28.873Z,41.48
2017-12-19T19:05:57.192Z,38.88
2017-12-19T19:08:25.446Z,38.54
2017-12-19T19:10:53.773Z,37.62
2017-12-19T19:13:22.098Z,45.02
2017-12-19T19:15:50.441Z,46.20
2017-12-19T19:18:18.772Z,41.76
2017-12-19T19:20:48.069Z,40.52
2017-12-19T19:23:16.409Z,53.22
2017-12-19T19:25:45.724Z,43.14
2017-12-19T19:28:14.076Z,49.02
2017-12-19T19:30:44.337Z,40.02
2017-12-19T19:33:12.673Z,45.02
2017-12-19T19:35:42.170Z,39.22
2017-12-19T19:38:10.455Z,34.16
2017-12-19T19:40:40.793Z,38.98
2017-12-19T19:43:09.093Z,35.28
2017-12-19T19:45:36.578Z,33.80
2017-12-19T19:48:04.904Z,37.16
2017-12-19T19:50:33.209Z,38.68
2017-12-19T19:53:01.589Z,34.54
2017-12-19T19:55:34.275Z,35.70
2017-12-19T19:58:02.590Z,36.98
2017-12-19T20:00:34.337Z,37.72
2017-12-19T20:03:02.649Z,41.50
2017-12-19T20:05:31.736Z,44.84
2017-12-19T20:08:04.941Z,38.28
2017-12-19T20:10:33.265Z,42.04
2017-12-19T20:13:01.561Z,37.16
2017-12-19T20:15:31.056Z,46.66
2017-12-19T20:17:59.326Z,40.02
2017-12-19T20:20:27.658Z,45.78
2017-12-19T20:22:55.902Z,35.30
2017-12-19T20:25:28.684Z,39.32
2017-12-19T20:27:56.930Z,36.84
2017-12-19T20:30:32.531Z,36.70
2017-12-19T20:33:04.493Z,38.22
2017-12-19T20:35:37.098Z,39.42
2017-12-19T20:38:04.669Z,45.10
2017-12-19T20:40:32.972Z,46.10
2017-12-19T20:43:01.298Z,35.26
2017-12-19T20:45:30.354Z,43.62
2017-12-19T20:48:10.683Z,48.70
2017-12-19T20:50:38.984Z,42.48
2017-12-19T20:53:07.269Z,45.66
2017-12-19T20:55:35.569Z,50.42
2017-12-19T20:58:04.777Z,43.92
2017-12-19T21:00:32.305Z,45.12
2017-12-19T21:03:01.725Z,39.68
2017-12-19T21:05:30.929Z,38.00
2017-12-19T21:08:04.501Z,47.82
2017-12-19T21:10:32.862Z,48.10
2017-12-19T21:13:01.817Z,43.00
2017-12-19T21:15:30.681Z,39.18
2017-12-19T21:18:00.167Z,50.92
2017-12-19T21:20:30.402Z,40.12
2017-12-19T21:22:58.705Z,40.40
2017-12-19T21:25:27.006Z,42.72
2017-12-19T21:27:55.333Z,50.28
2017-12-19T21:30:24.511Z,44.04
2017-12-19T21:32:52.849Z,51.46
2017-12-19T21:35:21.174Z,49.22
2017-12-19T21:37:49.536Z,48.72
2017-12-19T21:40:20.616Z,36.58
2017-12-19T21:42:48.942Z,43.50
2017-12-19T21:45:18.217Z,40.40
2017-12-19T21:47:46.537Z,42.52
2017-12-19T21:50:14.885Z,46.80
2017-12-19T21:52:43.179Z,55.20
2017-12-19T21:55:12.465Z,55.96
2017-12-19T21:57:40.798Z,52.80
2017-12-19T22:00:12.445Z,56.96
2017-12-19T22:02:40.782Z,47.10
2017-12-19T22:05:21.257Z,42.86
2017-12-19T22:07:49.586Z,44.50
2017-12-19T22:10:24.339Z,56.14
2017-12-19T22:12:52.633Z,46.16
2017-12-19T22:15:21.920Z,53.68
2017-12-19T22:17:50.252Z,60.58
2017-12-19T22:20:19.456Z,54.28
2017-12-19T22:22:47.701Z,58.42
2017-12-19T22:25:20.049Z,51.96
2017-12-19T22:27:48.354Z,60.26
2017-12-19T22:30:31.148Z,62.28
2017-12-19T22:33:00.601Z,53.62
2017-12-19T22:35:35.938Z,54.44
2017-12-19T22:38:04.261Z,57.76
2017-12-19T22:40:40.913Z,57.22
2017-12-19T22:43:09.245Z,58.32
2017-12-19T22:45:37.540Z,56.70
2017-12-19T22:48:05.842Z,62.06
2017-12-19T22:50:34.202Z,57.76
2017-12-19T22:53:02.505Z,58.42
2017-12-19T22:55:44.840Z,55.84
2017-12-19T22:58:13.082Z,60.82
2017-12-19T23:00:41.413Z,65.00
2017-12-19T23:03:09.894Z,63.88
2017-12-19T23:05:38.184Z,43.56
2017-12-19T23:08:06.477Z,50.42
2017-12-19T23:10:36.785Z,55.10
2017-12-19T23:13:05.081Z,52.54
2017-12-19T23:15:49.758Z,46.64
2017-12-19T23:18:18.135Z,50.06
2017-12-19T23:20:48.322Z,44.28
2017-12-19T23:23:16.618Z,49.40
2017-12-19T23:25:44.860Z,49.60
2017-12-19T23:28:13.132Z,49.14
2017-12-19T23:30:58.125Z,48.96
2017-12-19T23:33:26.417Z,52.30
2017-12-19T23:35:55.661Z,50.72
2017-12-19T23:38:23.955Z,47.50
2017-12-19T23:40:52.249Z,44.92
2017-12-19T23:43:20.497Z,41.88
2017-12-19T23:45:52.173Z,43.34
2017-12-19T23:48:19.684Z,49.54
2017-12-19T23:50:47.932Z,42.70
2017-12-19T23:53:16.193Z,39.46
2017-12-19T23:55:45.457Z,50.60
2017-12-19T23:58:13.698Z,44.28
